Time;durP1;ratioP1;P1;durP2;ratioP2;P2;SDS_P1;SDS_P2;PMS_P1;PMS_P2;Temp;Humidity;BMP_temperature;BMP_pressure;BME280_temperature;BME280_humidity;BME280_pressure;Samples;Min_cycle;Max_cycle;Signal;HPM_P1;HPM_P2
2021/08/07 00:02:18;;;;;;;27.25;24.55;;;;;;;18.56;95.32;99124.00;5042595;28;20033;-67
2021/08/07 00:05:05;;;;;;;28.83;25.77;;;;;;;18.67;95.66;99120.66;5058336;28;20029;-66
2021/08/07 00:07:51;;;;;;;27.02;24.35;;;;;;;18.73;95.08;99131.63;5061935;28;20035;-65
2021/08/07 00:10:37;;;;;;;29.40;26.23;;;;;;;18.74;94.86;99120.19;5060523;28;20087;-66
2021/08/07 00:13:22;;;;;;;29.85;26.65;;;;;;;18.64;95.03;99119.09;5061911;28;20053;-66
2021/08/07 00:16:08;;;;;;;28.95;26.02;;;;;;;18.62;95.50;99116.56;5051472;28;20100;-66
2021/08/07 00:18:54;;;;;;;30.83;27.60;;;;;;;18.60;95.68;99107.94;5040971;28;20100;-66
2021/08/07 00:21:40;;;;;;;29.77;26.73;;;;;;;18.54;95.68;99120.59;5042357;28;20222;-67
2021/08/07 00:24:26;;;;;;;29.40;26.27;;;;;;;18.69;95.59;99116.19;5055122;28;20207;-68
2021/08/07 00:27:16;;;;;;;27.63;24.92;;;;;;;18.79;94.83;99128.59;5040949;28;20025;-67
2021/08/07 00:30:04;;;;;;;30.13;27.10;;;;;;;18.46;94.57;99076.53;5041665;28;20021;-67
2021/08/07 00:32:50;;;;;;;28.52;25.73;;;;;;;18.85;94.33;99116.03;5042125;28;20032;-67
2021/08/07 00:35:36;;;;;;;28.75;25.95;;;;;;;18.58;95.70;99099.34;5047300;28;20029;-67
2021/08/07 00:38:29;;;;;;;26.80;24.02;;;;;;;18.88;94.07;99123.72;5060349;28;20031;-67
2021/08/07 00:41:21;;;;;;;28.50;25.75;;;;;;;18.77;95.01;99117.38;5060127;28;20036;-67
2021/08/07 00:44:07;;;;;;;30.25;27.25;;;;;;;18.73;95.25;99112.41;5059172;28;20343;-67
2021/08/07 00:46:53;;;;;;;30.52;26.60;;;;;;;18.77;94.85;99121.78;5052695;28;20044;-67
2021/08/07 00:49:39;;;;;;;26.92;24.27;;;;;;;18.83;94.36;99117.91;5041337;28;20063;-66
2021/08/07 00:52:25;;;;;;;31.35;27.27;;;;;;;18.72;94.87;99119.44;5041359;28;20026;-66
2021/08/07 00:55:11;;;;;;;29.45;26.20;;;;;;;18.83;94.64;99117.91;5043699;28;20036;-66
2021/08/07 00:57:57;;;;;;;31.45;27.67;;;;;;;18.68;95.09;99112.69;5060554;28;20040;-65
2021/08/07 01:00:43;;;;;;;31.38;27.65;;;;;;;18.59;95.37;99108.06;5061054;28;20028;-65
2021/08/07 01:03:34;;;;;;;30.17;26.98;;;;;;;18.71;95.35;99107.28;5060920;28;20083;-66
2021/08/07 01:06:53;;;;;;;32.67;27.77;;;;;;;18.61;95.18;99104.41;5059697;28;20041;-65
2021/08/07 01:09:48;;;;;;;30.92;25.70;;;;;;;18.66;95.55;99106.72;5041745;28;20033;-66
2021/08/07 01:12:40;;;;;;;29.83;25.83;;;;;;;18.73;95.23;99097.50;5041478;28;20042;-66
2021/08/07 01:15:28;;;;;;;31.48;27.02;;;;;;;18.50;94.66;99049.19;5045103;28;20056;-66
2021/08/07 01:18:18;;;;;;;33.97;27.63;;;;;;;18.62;94.91;99086.88;5060698;28;20029;-67
2021/08/07 01:21:11;;;;;;;30.20;26.98;;;;;;;18.72;94.61;99085.31;5060136;28;20020;-66
2021/08/07 01:24:03;;;;;;;31.25;26.92;;;;;;;18.37;94.61;99028.16;5061581;28;20029;-66
2021/08/07 01:26:56;;;;;;;29.65;26.55;;;;;;;18.72;94.20;99074.00;5047233;28;20029;-67
2021/08/07 01:29:43;;;;;;;31.55;26.63;;;;;;;18.61;94.62;99072.94;5042203;28;20032;-66
2021/08/07 01:32:32;;;;;;;33.20;27.75;;;;;;;18.52;94.52;99054.31;5052030;28;20528;-66
2021/08/07 01:35:18;;;;;;;29.95;26.98;;;;;;;18.79;93.95;99077.91;5061916;28;20100;-67
2021/08/07 01:38:06;;;;;;;25.25;22.48;;;;;;;18.65;93.23;99025.50;5059591;28;20033;-66
2021/08/07 01:40:52;;;;;;;28.83;25.83;;;;;;;18.84;93.37;99072.34;5061395;28;20342;-67
2021/08/07 01:43:38;;;;;;;30.38;24.80;;;;;;;18.90;93.13;99069.38;5061756;28;20094;-66
2021/08/07 01:46:31;;;;;;;27.30;24.38;;;;;;;18.67;93.73;99083.94;5051612;28;20029;-65
2021/08/07 01:49:27;;;;;;;28.70;25.73;;;;;;;18.29;94.78;99012.91;5041672;28;20029;-66
2021/08/07 01:52:18;;;;;;;28.30;25.48;;;;;;;18.66;94.47;99056.88;5041857;28;20053;-66
2021/08/07 01:55:08;;;;;;;28.33;24.08;;;;;;;18.63;92.98;99029.06;5044493;28;20029;-67
2021/08/07 01:58:10;;;;;;;28.63;25.65;;;;;;;18.72;94.03;99071.38;5045690;28;20033;-67
2021/08/07 02:00:59;;;;;;;27.50;24.45;;;;;;;18.78;93.83;99087.56;5044678;28;20448;-67
2021/08/07 02:03:46;;;;;;;25.25;22.67;;;;;;;18.67;93.77;99084.81;5051168;28;20029;-67
2021/08/07 02:06:32;;;;;;;27.40;24.55;;;;;;;18.72;94.47;99081.88;5064720;28;20028;-67
2021/08/07 02:09:18;;;;;;;28.23;24.35;;;;;;;18.61;95.06;99072.06;5064871;28;20032;-67
2021/08/07 02:12:06;;;;;;;27.20;24.30;;;;;;;18.68;94.49;99075.13;5062855;28;20037;-67
2021/08/07 02:14:53;;;;;;;26.95;24.17;;;;;;;18.71;94.37;99062.69;5065360;28;20058;-67
2021/08/07 02:17:43;;;;;;;28.95;24.80;;;;;;;18.38;93.77;99029.81;5063151;28;20056;-66
2021/08/07 02:20:30;;;;;;;27.58;24.73;;;;;;;18.64;93.87;99087.63;5064538;28;20029;-65
2021/08/07 02:23:17;;;;;;;27.85;24.90;;;;;;;18.74;94.46;99108.84;5063039;28;20024;-66
2021/08/07 02:26:05;;;;;;;26.02;23.52;;;;;;;18.76;93.52;99110.44;5064951;28;20043;-66
2021/08/07 02:28:51;;;;;;;24.27;21.88;;;;;;;18.95;93.23;99099.63;5063412;28;20075;-67
2021/08/07 02:31:39;;;;;;;26.15;23.50;;;;;;;18.72;92.99;99061.72;5065084;28;20071;-65
2021/08/07 02:34:29;;;;;;;27.80;24.95;;;;;;;18.85;92.95;99093.25;5062675;28;20217;-66
2021/08/07 02:37:15;;;;;;;25.75;23.10;;;;;;;18.98;93.03;99114.31;5045914;28;20021;-66
2021/08/07 02:40:03;;;;;;;27.45;24.70;;;;;;;18.56;92.60;99079.41;5043038;28;20041;-66
2021/08/07 02:42:50;;;;;;;26.10;23.45;;;;;;;19.02;92.33;99109.72;5044406;28;20273;-67
2021/08/07 02:45:36;;;;;;;27.75;24.75;;;;;;;18.79;93.14;99114.63;5048259;28;20060;-67
2021/08/07 02:48:24;;;;;;;27.83;25.02;;;;;;;18.71;93.69;99116.91;5062889;28;20163;-67
2021/08/07 02:51:10;;;;;;;28.92;25.90;;;;;;;18.78;93.60;99105.94;5064651;28;20233;-65
2021/08/07 02:53:57;;;;;;;28.00;25.40;;;;;;;18.70;94.21;99102.97;5064103;28;20106;-65
2021/08/07 02:56:45;;;;;;;30.25;27.25;;;;;;;18.76;93.92;99086.81;5050159;28;20017;-66
2021/08/07 02:59:31;;;;;;;29.45;26.38;;;;;;;18.78;93.90;99095.44;5044474;28;20029;-66
2021/08/07 03:02:17;;;;;;;27.42;24.77;;;;;;;18.77;93.94;99093.75;5044556;28;20144;-65
2021/08/07 03:05:03;;;;;;;27.98;25.08;;;;;;;18.65;94.33;99097.16;5059983;28;20021;-65
2021/08/07 03:07:48;;;;;;;27.48;24.60;;;;;;;18.66;94.73;99108.50;5044441;28;20029;-65
2021/08/07 03:10:34;;;;;;;27.48;24.65;;;;;;;18.64;94.80;99098.13;5044303;28;20027;-65
2021/08/07 03:13:20;;;;;;;28.42;25.60;;;;;;;18.72;94.57;99084.50;5044395;28;20045;-65
2021/08/07 03:16:07;;;;;;;28.25;25.23;;;;;;;18.73;94.77;99046.84;5050381;28;20024;-66
2021/08/07 03:18:53;;;;;;;29.15;26.30;;;;;;;18.66;95.58;99030.66;5064075;28;20096;-66
2021/08/07 03:21:39;;;;;;;29.50;26.58;;;;;;;18.67;95.19;99011.34;5061875;28;20027;-68
2021/08/07 03:24:25;;;;;;;30.63;27.50;;;;;;;18.65;96.25;99028.13;5063995;28;20048;-68
2021/08/07 03:27:12;;;;;;;26.63;23.98;;;;;;;18.80;95.03;99071.72;5047820;28;20229;-67
2021/08/07 03:29:58;;;;;;;29.33;26.33;;;;;;;18.87;95.19;99087.91;5043366;28;20100;-67
2021/08/07 03:32:44;;;;;;;28.70;25.60;;;;;;;18.86;95.30;99083.59;5044023;28;20325;-67
2021/08/07 03:35:30;;;;;;;30.38;27.33;;;;;;;18.84;95.26;99103.84;5045661;28;20040;-68
2021/08/07 03:38:15;;;;;;;28.75;25.85;;;;;;;18.75;94.98;99110.53;5062729;28;20128;-68
2021/08/07 03:41:01;;;;;;;29.30;26.27;;;;;;;18.61;95.31;99108.78;5061452;28;20338;-68
2021/08/07 03:43:47;;;;;;;30.70;27.48;;;;;;;18.67;95.93;99118.91;5061976;28;20025;-67
2021/08/07 03:46:33;;;;;;;28.55;25.85;;;;;;;18.77;95.56;99101.63;5051715;28;20318;-67
2021/08/07 03:49:19;;;;;;;30.48;26.83;;;;;;;18.67;95.41;99108.41;5043461;28;20061;-67
2021/08/07 03:52:05;;;;;;;32.42;29.00;;;;;;;18.61;96.11;99096.53;5042972;28;20056;-68
2021/08/07 03:54:51;;;;;;;29.67;26.77;;;;;;;18.77;95.87;99093.75;5043473;28;20059;-66
2021/08/07 03:57:54;;;;;;;29.65;26.63;;;;;;;18.83;95.55;99117.91;5061240;28;20066;-68
2021/08/07 04:00:40;;;;;;;29.42;26.33;;;;;;;18.81;95.68;99102.25;5063117;28;20028;-67
2021/08/07 04:03:26;;;;;;;30.33;27.30;;;;;;;18.65;96.64;99098.94;5060703;28;20063;-68
2021/08/07 04:06:12;;;;;;;28.25;25.50;;;;;;;18.66;96.70;99092.78;5062304;28;20033;-68
2021/08/07 04:08:58;;;;;;;28.27;24.75;;;;;;;18.77;96.06;99080.63;5061223;28;20047;-68
2021/08/07 04:11:43;;;;;;;28.95;25.92;;;;;;;18.86;96.00;99083.59;5061704;28;20268;-68
2021/08/07 04:14:29;;;;;;;26.92;24.20;;;;;;;18.82;96.03;99082.94;5062853;28;20063;-67
2021/08/07 04:17:15;;;;;;;29.02;25.55;;;;;;;18.73;95.98;99094.06;5046561;28;20026;-66
2021/08/07 04:20:06;;;;;;;29.77;26.02;;;;;;;18.72;96.66;99069.59;5042549;28;20330;-67
2021/08/07 04:22:52;;;;;;;27.73;24.90;;;;;;;19.00;96.49;99080.09;5041205;28;20048;-67
2021/08/07 04:25:38;;;;;;;25.90;23.42;;;;;;;19.07;95.27;99084.84;5045306;28;20217;-66
2021/08/07 04:28:24;;;;;;;28.27;25.38;;;;;;;19.13;95.19;99080.97;5062817;28;20040;-66
2021/08/07 04:31:10;;;;;;;27.90;24.38;;;;;;;19.10;94.63;99082.00;5060742;28;20060;-66
2021/08/07 04:33:55;;;;;;;24.95;22.35;;;;;;;19.27;93.93;99094.00;5062762;28;20344;-67
2021/08/07 04:36:41;;;;;;;26.55;23.88;;;;;;;19.33;93.68;99089.31;5050535;28;20258;-66
2021/08/07 04:39:27;;;;;;;26.40;23.55;;;;;;;19.14;94.41;99087.91;5042678;28;20028;-66
2021/08/07 04:42:13;;;;;;;25.80;23.17;;;;;;;19.09;94.05;99090.81;5042562;28;20030;-67
2021/08/07 04:44:59;;;;;;;25.83;22.90;;;;;;;19.10;94.46;99082.00;5054299;28;20036;-67
2021/08/07 04:47:52;;;;;;;26.08;23.60;;;;;;;19.12;94.97;99087.97;5040740;28;20033;-67
2021/08/07 04:50:38;;;;;;;25.85;23.15;;;;;;;19.37;94.29;99083.72;5042436;28;20025;-66
2021/08/07 04:53:24;;;;;;;22.88;20.67;;;;;;;19.48;93.32;99094.34;5042436;28;20060;-67
2021/08/07 04:56:10;;;;;;;25.00;22.50;;;;;;;19.59;93.01;99098.03;5058111;28;20199;-68
2021/08/07 04:58:56;;;;;;;24.13;21.58;;;;;;;19.44;92.84;99097.28;5061229;28;20092;-66
2021/08/07 05:01:42;;;;;;;24.60;22.17;;;;;;;19.60;92.33;99097.91;5061035;28;20270;-66
2021/08/07 05:04:28;;;;;;;23.60;20.83;;;;;;;19.65;91.42;99108.09;5062027;28;20040;-66
2021/08/07 05:07:14;;;;;;;24.50;21.38;;;;;;;19.58;92.13;99104.22;5061435;28;20397;-66
2021/08/07 05:10:01;;;;;;;23.85;21.55;;;;;;;19.72;92.02;99092.75;5062257;28;20078;-67
2021/08/07 05:12:46;;;;;;;23.27;20.88;;;;;;;19.86;91.28;99097.94;5061674;28;20063;-67
2021/08/07 05:15:32;;;;;;;23.02;20.83;;;;;;;19.93;91.41;99088.66;5060992;28;20024;-67
2021/08/07 05:18:18;;;;;;;23.00;20.63;;;;;;;20.05;90.44;99096.66;5042296;28;20203;-66
2021/08/07 05:21:04;;;;;;;23.23;20.88;;;;;;;20.03;90.39;99094.13;5042105;28;20018;-66
2021/08/07 05:23:50;;;;;;;22.55;20.30;;;;;;;19.92;91.27;99094.88;5042070;28;20036;-66
2021/08/07 05:26:36;;;;;;;25.65;21.30;;;;;;;20.08;90.62;99088.53;5051408;28;20025;-66
2021/08/07 05:29:22;;;;;;;20.23;18.42;;;;;;;19.97;90.19;99098.03;5062081;28;20037;-67
2021/08/07 05:32:07;;;;;;;21.73;19.42;;;;;;;20.05;90.24;99094.00;5064291;28;20039;-67
2021/08/07 05:34:53;;;;;;;21.65;19.42;;;;;;;20.27;89.39;99088.09;5063884;28;20033;-67
2021/08/07 05:37:40;;;;;;;20.63;18.42;;;;;;;20.40;89.07;99078.34;5045452;28;20025;-68
2021/08/07 05:40:26;;;;;;;22.42;18.42;;;;;;;20.57;88.21;99071.03;5045890;28;20040;-67
2021/08/07 05:43:12;;;;;;;18.25;16.58;;;;;;;20.58;87.67;99054.28;5045833;28;20067;-68
2021/08/07 05:45:58;;;;;;;21.65;17.35;;;;;;;20.86;86.75;99067.16;5049992;28;20096;-67
2021/08/07 05:48:44;;;;;;;18.02;16.23;;;;;;;21.06;86.06;99077.97;5065217;28;20040;-67
2021/08/07 05:51:33;;;;;;;18.75;16.75;;;;;;;21.12;85.64;99058.22;5063093;28;20075;-68
2021/08/07 05:54:20;;;;;;;18.60;16.15;;;;;;;21.24;83.18;99067.00;5065558;28;20099;-67
2021/08/07 05:57:06;;;;;;;16.90;15.05;;;;;;;21.40;83.28;99062.25;5052155;28;20253;-68
2021/08/07 05:59:52;;;;;;;19.75;15.43;;;;;;;21.52;82.83;99056.06;5044300;28;20025;-67
2021/08/07 06:02:38;;;;;;;15.40;13.85;;;;;;;21.68;82.51;99073.34;5045529;28;20100;-66
2021/08/07 06:05:24;;;;;;;16.40;14.27;;;;;;;21.68;81.82;99052.25;5063626;28;20043;-67
2021/08/07 06:08:10;;;;;;;22.70;15.20;;;;;;;21.64;81.05;99056.06;5044485;28;20037;-66
2021/08/07 06:10:58;;;;;;;16.08;13.57;;;;;;;21.77;80.65;99050.69;5044532;28;20357;-66
2021/08/07 06:13:43;;;;;;;16.02;13.82;;;;;;;21.71;80.71;99055.47;5045150;28;20212;-65
2021/08/07 06:16:29;;;;;;;17.42;13.88;;;;;;;21.58;80.44;99067.06;5052575;28;20060;-67
2021/08/07 06:19:15;;;;;;;18.88;13.52;;;;;;;21.59;80.79;99059.06;5063397;28;20064;-67
2021/08/07 06:22:02;;;;;;;17.70;13.68;;;;;;;21.79;80.10;99068.06;5063351;28;20025;-65
2021/08/07 06:24:48;;;;;;;17.42;13.95;;;;;;;21.95;79.51;99051.88;5064332;28;20024;-67
2021/08/07 06:27:34;;;;;;;17.48;12.88;;;;;;;22.27;79.44;99050.25;5061634;28;20032;-68
2021/08/07 06:30:25;;;;;;;14.20;12.63;;;;;;;22.50;79.46;99056.34;5060884;28;20074;-65
2021/08/07 06:33:12;;;;;;;19.48;13.57;;;;;;;22.33;77.96;99047.16;5063859;28;20029;-67
2021/08/07 06:36:00;;;;;;;17.88;13.10;;;;;;;22.27;77.19;99026.53;5064102;28;20051;-67
2021/08/07 06:38:46;;;;;;;15.85;12.95;;;;;;;22.41;77.23;99042.09;5064744;28;20129;-66
2021/08/07 06:41:33;;;;;;;19.77;12.77;;;;;;;22.38;77.57;99045.81;5063718;28;20033;-67
2021/08/07 06:44:19;;;;;;;17.20;12.60;;;;;;;22.29;77.04;99043.06;5062588;28;20021;-68
2021/08/07 06:47:05;;;;;;;20.42;12.60;;;;;;;22.16;77.06;99046.69;5049464;28;20032;-64
2021/08/07 06:49:51;;;;;;;18.60;13.25;;;;;;;22.23;78.30;99039.09;5055377;28;20028;-67
2021/08/07 06:52:37;;;;;;;21.45;13.32;;;;;;;22.02;78.74;99046.97;5063631;28;20037;-67
2021/08/07 06:55:23;;;;;;;21.48;12.45;;;;;;;21.87;78.93;99049.81;5063855;28;20066;-68
2021/08/07 06:58:09;;;;;;;17.95;13.10;;;;;;;22.06;79.10;99061.56;5044337;28;20033;-67
2021/08/07 07:00:55;;;;;;;12.82;11.48;;;;;;;22.18;78.82;99051.84;5044468;28;20269;-67
2021/08/07 07:03:40;;;;;;;24.70;13.45;;;;;;;22.26;78.73;99053.84;5047666;28;20025;-67
2021/08/07 07:06:26;;;;;;;14.90;11.88;;;;;;;22.08;77.55;99041.19;5063577;28;20028;-66
2021/08/07 07:09:12;;;;;;;12.77;11.48;;;;;;;22.38;77.31;99066.09;5061797;28;20028;-66
2021/08/07 07:11:58;;;;;;;16.52;11.13;;;;;;;22.43;76.82;99074.47;5064011;28;20277;-66
2021/08/07 07:14:44;;;;;;;17.08;10.82;;;;;;;22.40;76.46;99072.06;5064056;28;20021;-67
2021/08/07 07:17:30;;;;;;;16.02;11.18;;;;;;;22.44;76.84;99072.69;5048360;28;20021;-67
2021/08/07 07:20:17;;;;;;;14.15;10.55;;;;;;;22.50;76.37;99083.59;5043547;28;20261;-67
2021/08/07 07:23:03;;;;;;;14.88;9.90;;;;;;;22.61;76.28;99084.50;5043861;28;20359;-66
2021/08/07 07:25:50;;;;;;;16.52;10.90;;;;;;;22.64;76.06;99085.09;5045991;28;20040;-67
2021/08/07 07:28:36;;;;;;;16.73;10.75;;;;;;;22.73;76.02;99087.00;5063758;28;20044;-67
2021/08/07 07:31:23;;;;;;;13.90;10.00;;;;;;;22.77;75.76;99089.38;5061358;28;20044;-66
2021/08/07 07:34:09;;;;;;;12.77;10.02;;;;;;;22.86;76.16;99101.81;5061421;28;20021;-67
2021/08/07 07:36:55;;;;;;;11.65;9.70;;;;;;;22.85;76.62;99114.19;5061767;28;20029;-65
2021/08/07 07:39:41;;;;;;;14.02;9.45;;;;;;;22.93;75.17;99118.81;5063211;28;20320;-66
2021/08/07 07:42:27;;;;;;;12.55;10.73;;;;;;;23.04;75.49;99126.69;5062914;28;20017;-67
2021/08/07 07:45:13;;;;;;;14.98;9.82;;;;;;;23.18;76.36;99122.13;5063437;28;20322;-67
2021/08/07 07:47:59;;;;;;;14.80;10.18;;;;;;;23.16;77.02;99131.97;5044567;28;20330;-67
2021/08/07 07:50:46;;;;;;;15.52;10.15;;;;;;;23.25;75.12;99124.13;5043311;28;20025;-66
2021/08/07 07:53:32;;;;;;;16.30;10.05;;;;;;;23.28;74.40;99115.09;5042897;28;20028;-67
2021/08/07 07:56:20;;;;;;;16.50;9.70;;;;;;;23.32;74.13;99118.34;5047679;28;20231;-67
2021/08/07 07:59:06;;;;;;;14.25;9.48;;;;;;;23.44;73.38;99118.16;5063576;28;20059;-67
2021/08/07 08:01:52;;;;;;;12.95;9.52;;;;;;;23.48;73.45;99121.34;5063421;28;20090;-67
2021/08/07 08:04:38;;;;;;;15.82;8.98;;;;;;;23.40;72.79;99140.50;5063345;28;20029;-66
2021/08/07 08:07:23;;;;;;;17.58;8.63;;;;;;;23.43;73.11;99157.94;5049381;28;20025;-66
2021/08/07 08:10:11;;;;;;;14.98;9.50;;;;;;;23.47;74.38;99169.88;5043478;28;20052;-65
2021/08/07 08:12:57;;;;;;;15.18;8.73;;;;;;;23.30;72.86;99175.75;5042075;28;20164;-66
2021/08/07 08:15:43;;;;;;;10.13;7.85;;;;;;;23.16;72.67;99185.66;5043569;28;20218;-66
2021/08/07 08:18:29;;;;;;;12.40;8.40;;;;;;;23.14;72.48;99170.91;5063334;28;20021;-65
2021/08/07 08:21:15;;;;;;;14.18;7.88;;;;;;;23.05;73.07;99165.38;5063285;28;20088;-67
2021/08/07 08:24:00;;;;;;;11.60;7.78;;;;;;;23.05;73.19;99164.53;5063277;28;20036;-67
2021/08/07 08:26:46;;;;;;;12.73;7.68;;;;;;;22.98;72.58;99148.34;5054570;28;20034;-67
2021/08/07 08:29:33;;;;;;;11.88;8.05;;;;;;;23.20;72.86;99142.19;5056644;28;20334;-68
2021/08/07 08:32:19;;;;;;;13.10;7.82;;;;;;;23.15;72.51;99131.16;5058808;28;20036;-67
2021/08/07 08:35:05;;;;;;;19.38;7.93;;;;;;;23.38;73.26;99123.09;5063177;28;20099;-67
2021/08/07 08:37:51;;;;;;;16.33;8.35;;;;;;;23.42;72.28;99117.41;5062379;28;20087;-67
2021/08/07 08:40:37;;;;;;;12.80;7.72;;;;;;;23.51;71.74;99125.53;5062998;28;20024;-67
2021/08/07 08:43:23;;;;;;;16.48;7.55;;;;;;;23.43;71.78;99108.53;5063053;28;20114;-68
2021/08/07 08:46:10;;;;;;;11.82;7.22;;;;;;;23.43;71.47;99083.91;5059419;28;20033;-67
2021/08/07 08:48:56;;;;;;;10.80;7.97;;;;;;;23.36;71.76;99070.38;5042750;28;20345;-67
2021/08/07 08:51:45;;;;;;;19.45;8.80;;;;;;;23.07;72.31;99025.25;5042966;28;20025;-69
2021/08/07 08:54:31;;;;;;;14.90;7.70;;;;;;;23.07;72.64;99055.16;5042804;28;20037;-67
2021/08/07 08:57:17;;;;;;;11.52;7.57;;;;;;;23.09;73.49;99061.13;5055377;28;20031;-69
2021/08/07 09:00:05;;;;;;;9.55;7.70;;;;;;;23.02;72.41;99016.88;5062755;28;20025;-67
2021/08/07 09:02:51;;;;;;;14.98;8.25;;;;;;;23.23;72.78;99077.66;5061804;28;20033;-67
2021/08/07 09:05:37;;;;;;;13.88;8.40;;;;;;;23.25;73.21;99099.50;5042771;28;20032;-68
2021/08/07 09:08:23;;;;;;;14.38;8.02;;;;;;;23.52;73.28;99106.91;5042208;28;20393;-67
2021/08/07 09:11:19;;;;;;;12.73;7.15;;;;;;;23.66;71.77;99097.81;5041578;28;20091;-68
2021/08/07 09:14:18;;;;;;;14.15;7.50;;;;;;;23.81;70.98;99094.81;5041643;28;20049;-67
2021/08/07 09:17:08;;;;;;;12.45;8.32;;;;;;;24.09;71.39;99114.47;5051464;28;20037;-67
2021/08/07 09:19:57;;;;;;;11.27;7.57;;;;;;;24.11;70.85;99064.88;5062634;28;20032;-67
2021/08/07 09:22:43;;;;;;;13.52;8.18;;;;;;;24.34;70.27;99093.75;5062744;28;20029;-67
2021/08/07 09:25:40;;;;;;;11.05;7.82;;;;;;;24.47;68.73;99097.00;5062410;28;20351;-68
2021/08/07 09:28:47;;;;;;;16.17;7.30;;;;;;;24.34;68.06;99054.88;5058123;28;20095;-69
2021/08/07 09:31:33;;;;;;;13.63;7.35;;;;;;;24.41;67.75;99109.00;5039769;28;20053;-67
2021/08/07 09:34:20;;;;;;;13.43;7.78;;;;;;;24.47;67.74;99115.53;5041250;28;20025;-68
2021/08/07 09:37:06;;;;;;;16.15;7.93;;;;;;;24.32;67.56;99127.50;5051015;28;20028;-67
2021/08/07 09:39:52;;;;;;;15.02;7.78;;;;;;;24.36;67.93;99140.31;5061126;28;20029;-67
2021/08/07 09:42:55;;;;;;;12.93;7.75;;;;;;;24.26;68.19;99148.22;5062002;28;20502;-67
2021/08/07 09:45:42;;;;;;;14.77;8.65;;;;;;;24.24;68.43;99147.53;5062505;28;20043;-68
2021/08/07 09:48:35;;;;;;;10.27;7.10;;;;;;;24.06;68.60;99104.16;5042469;28;20361;-68
2021/08/07 09:51:24;;;;;;;11.55;7.55;;;;;;;24.33;68.47;99143.22;5041765;28;20188;-66
2021/08/07 09:54:11;;;;;;;17.67;8.20;;;;;;;24.40;68.87;99143.50;5041782;28;20092;-68
2021/08/07 09:56:58;;;;;;;10.77;7.55;;;;;;;24.51;69.78;99146.03;5050649;28;20025;-68
2021/08/07 09:59:48;;;;;;;13.10;8.27;;;;;;;24.11;69.68;99101.91;5061204;28;20041;-67
2021/08/07 10:02:38;;;;;;;15.65;8.63;;;;;;;24.42;69.69;99133.63;5062405;28;20116;-68
2021/08/07 10:05:27;;;;;;;17.02;9.13;;;;;;;24.42;69.61;99121.22;5061981;28;20033;-67
2021/08/07 10:08:15;;;;;;;14.57;8.23;;;;;;;24.59;69.70;99127.66;5061429;28;20036;-67
2021/08/07 10:11:12;;;;;;;11.15;8.50;;;;;;;24.61;69.27;99115.19;5062139;28;20222;-68
2021/08/07 10:13:58;;;;;;;8.30;7.10;;;;;;;24.73;70.67;99128.31;5062033;28;20128;-68
2021/08/07 10:16:44;;;;;;;15.50;9.13;;;;;;;24.69;72.61;99116.31;5058613;28;20092;-68
2021/08/07 10:19:32;;;;;;;13.35;9.32;;;;;;;24.72;69.93;99118.69;5045709;28;20039;-67
2021/08/07 10:22:19;;;;;;;15.88;8.88;;;;;;;24.55;70.30;99120.97;5045615;28;20078;-67
2021/08/07 10:25:08;;;;;;;14.93;8.65;;;;;;;24.75;70.29;99123.69;5045662;28;20033;-68
2021/08/07 10:28:00;;;;;;;13.73;8.60;;;;;;;24.67;71.05;99115.59;5061208;28;20033;-67
2021/08/07 10:30:46;;;;;;;14.13;8.50;;;;;;;24.83;71.09;99146.81;5064213;28;20052;-68
2021/08/07 10:33:36;;;;;;;11.25;9.10;;;;;;;24.73;71.41;99130.94;5060372;28;20028;-68
2021/08/07 10:36:23;;;;;;;67.97;49.30;;;;;;;24.91;72.08;99153.13;5060877;28;20104;-69
2021/08/07 10:39:09;;;;;;;13.10;9.93;;;;;;;25.10;71.97;99170.03;5048293;28;20353;-67
2021/08/07 10:41:59;;;;;;;15.35;9.00;;;;;;;25.04;71.54;99181.16;5065298;28;20048;-68
2021/08/07 10:44:46;;;;;;;11.13;8.25;;;;;;;25.05;70.46;99166.94;5064477;28;20021;-68
2021/08/07 10:47:40;;;;;;;12.63;8.20;;;;;;;24.74;69.76;99120.22;5076278;28;20024;-68
2021/08/07 10:50:29;;;;;;;11.95;8.18;;;;;;;25.25;70.33;99162.47;5045211;28;20135;-68
2021/08/07 10:53:24;;;;;;;11.70;7.78;;;;;;;25.17;69.16;99160.53;5045225;28;20025;-69
2021/08/07 10:56:09;;;;;;;13.52;7.85;;;;;;;25.23;68.84;99161.78;5045950;28;20018;-68
2021/08/07 10:58:57;;;;;;;9.20;7.70;;;;;;;25.16;68.43;99143.78;5056077;28;20199;-67
2021/08/07 11:01:44;;;;;;;10.68;7.75;;;;;;;25.28;68.80;99139.19;5057468;28;20036;-68
2021/08/07 11:04:46;;;;;;;11.40;7.30;;;;;;;25.33;69.30;99144.91;5053699;28;20080;-68
2021/08/07 11:07:32;;;;;;;12.15;7.63;;;;;;;25.29;68.17;99140.84;5049676;28;20265;-67
2021/08/07 11:10:18;;;;;;;9.82;7.50;;;;;;;25.25;66.92;99144.75;5049801;28;20206;-68
2021/08/07 11:13:26;;;;;;;12.73;9.27;;;;;;;25.31;67.65;99143.34;5047936;28;20049;-67
2021/08/07 11:16:20;;;;;;;17.90;9.90;;;;;;;25.20;68.40;99131.09;5049386;28;20043;-68
2021/08/07 11:19:44;;;;;;;17.45;7.15;;;;;;;24.96;66.51;99132.34;5064768;28;20276;-69
2021/08/07 11:22:39;;;;;;;10.90;7.18;;;;;;;25.01;68.76;99155.75;5057365;28;20044;-70
2021/08/07 11:25:25;;;;;;;10.63;7.28;;;;;;;25.03;68.39;99155.66;5064246;28;20330;-68
2021/08/07 11:28:11;;;;;;;15.65;7.93;;;;;;;24.92;68.95;99164.56;5054669;28;20024;-68
2021/08/07 11:31:18;;;;;;;13.48;7.93;;;;;;;24.64;71.97;99135.22;5063841;28;20099;-68
2021/08/07 11:34:20;;;;;;;14.35;7.68;;;;;;;24.47;70.63;99115.53;5063882;28;20044;-68
2021/08/07 11:37:15;;;;;;;;;;;;;;;24.66;69.94;99140.41;5064100;28;20024;-68
2021/08/07 11:40:13;;;;;;;14.18;8.52;;;;;;;24.41;71.46;99109.00;5063584;28;19905;-68
2021/08/07 11:42:59;;;;;;;11.48;8.15;;;;;;;24.51;73.91;99169.88;5058368;28;20048;-69
2021/08/07 11:45:46;;;;;;;15.38;9.48;;;;;;;24.22;74.78;99135.38;5053195;28;20180;-68
2021/08/07 11:48:33;;;;;;;10.40;9.13;;;;;;;24.46;76.40;99164.16;5043526;28;20029;-68
2021/08/07 11:51:25;;;;;;;11.70;9.82;;;;;;;24.35;78.29;99164.28;5062945;28;20032;-68
2021/08/07 11:54:13;;;;;;;16.95;10.93;;;;;;;24.29;80.29;99141.81;5052383;28;20064;-68
2021/08/07 11:56:59;;;;;;;12.35;9.90;;;;;;;24.26;78.55;99131.50;5055596;28;20027;-68
2021/08/07 11:59:45;;;;;;;15.25;11.10;;;;;;;24.33;78.70;99140.59;5083320;28;20028;-67
2021/08/07 12:02:31;;;;;;;13.27;10.73;;;;;;;24.21;79.99;99126.59;5081169;28;20070;-67
2021/08/07 12:05:17;;;;;;;14.93;11.10;;;;;;;24.11;78.66;99133.66;5062340;28;20029;-68
2021/08/07 12:08:03;;;;;;;17.02;11.55;;;;;;;24.24;79.03;99136.06;5053502;28;20203;-68
2021/08/07 12:10:53;;;;;;;12.88;10.80;;;;;;;24.20;78.59;99124.09;5042854;28;20196;-66
2021/08/07 12:13:42;;;;;;;10.98;8.88;;;;;;;24.13;78.11;99111.41;5058345;28;20053;-66
2021/08/07 12:16:32;;;;;;;16.73;10.85;;;;;;;24.40;80.55;99160.25;5062565;28;20329;-67
2021/08/07 12:19:21;;;;;;;12.05;9.55;;;;;;;24.23;78.40;99118.56;5057232;28;20036;-67
2021/08/07 12:22:07;;;;;;;19.35;11.35;;;;;;;24.45;79.45;99144.78;5042269;28;20304;-68
2021/08/07 12:25:04;;;;;;;11.98;10.70;;;;;;;24.25;78.71;99119.25;5042608;28;20040;-67
2021/08/07 12:28:14;;;;;;;16.15;10.98;;;;;;;24.50;80.03;99149.69;5056215;28;20043;-67
2021/08/07 12:31:02;;;;;;;11.65;9.90;;;;;;;24.35;80.14;99135.16;5062631;28;20032;-68
2021/08/07 12:33:48;;;;;;;18.15;11.48;;;;;;;24.40;82.57;99151.44;5063018;28;20222;-68
2021/08/07 12:36:34;;;;;;;13.38;11.00;;;;;;;24.35;82.52;99146.56;5058814;28;20026;-68
2021/08/07 12:39:20;;;;;;;16.58;11.95;;;;;;;24.37;82.70;99142.00;5042057;28;20294;-66
2021/08/07 12:42:07;;;;;;;21.33;13.75;;;;;;;24.33;84.31;99143.22;5042401;28;20083;-67
2021/08/07 12:44:58;;;;;;;19.50;12.65;;;;;;;24.08;83.94;99103.00;5042394;28;20025;-67
2021/08/07 12:47:44;;;;;;;15.60;11.70;;;;;;;24.33;83.66;99145.88;5055407;28;20040;-67
2021/08/07 12:50:30;;;;;;;16.25;12.07;;;;;;;24.23;84.97;99145.00;5060256;28;20028;-67
2021/08/07 12:53:16;;;;;;;19.80;15.15;;;;;;;24.21;85.88;99157.53;5061299;28;20374;-67
2021/08/07 12:56:03;;;;;;;19.75;14.23;;;;;;;24.17;85.06;99172.84;5061638;28;20088;-67